• Join FlightAware (Why Join?)
  • Login
  • US Flag 
12:54AM EDT


 

Airport Tracker/Info


-or-


 

Live Flight TrackerFlight Track Log ✈ AWE2312 ✈ 05-May-2014 ✈ KDFW - KSDF

Flight Track Log - Related Links

Times and Time Zones

All times are in EDT time to prevent confusion due to time zone crossing. See the AWE2312 flight status page for this flight to view local times or setup timezone preferences in your user account.

Time Position Orientation Groundspeed Altitude Reporting Facility
EDT Latitude Longitude Course Direction KTS MPH feet Rate Location/Type
09:42PM 32.8833 -97.0333 57° Northeast 160 184 1,300  Level Dallas / Fort Worth TRACON
09:42PM 32.8500 -97.0167 157° South 208 239 2,500 2,640 Climbing Dallas / Fort Worth TRACON
09:43PM 32.8000 -97.0000 164° South 230 265 5,000 2,940 Climbing Dallas / Fort Worth TRACON
09:44PM 32.7667 -96.9167 115° Southeast 293 337 8,400 2,220 Climbing Dallas / Fort Worth TRACON
09:45PM 32.8903 -96.6230 52° Northeast  Level FlightAware Approximate
09:45PM 32.7667 -96.8167 90° East 313 360 10,000  Level Dallas / Fort Worth TRACON
09:46PM 32.9622 -96.5107 57° Northeast  Level FlightAware Approximate
09:47PM 33.0264 -96.3916 57° Northeast  Level FlightAware Approximate
09:47PM 32.8447 -96.7086 49° Northeast 376 433 11,800  Level Fort Worth Center
09:48PM 32.9175 -96.5942 53° Northeast 403 464 15,400 3,120 Climbing Fort Worth Center
09:49PM 32.9875 -96.4836 53° Northeast 427 491 18,200 2,580 Climbing Fort Worth Center
09:50PM 33.0653 -96.3597 53° Northeast 435 501 20,800 2,340 Climbing Fort Worth Center
09:51PM 33.1164 -96.2203 66° East 456 525 23,000 1,860 Climbing Fort Worth Center
09:52PM 33.1528 -96.0950 71° East 465 535 24,700 1,980 Climbing Fort Worth Center
09:53PM 33.2053 -95.9153 71° East 477 549 27,100 2,040 Climbing Fort Worth Center
09:54PM 33.2500 -95.7631 71° East 482 555 29,000 1,860 Climbing Fort Worth Center
09:55PM 33.2933 -95.6119 71° East 482 555 31,000 1,800 Climbing Fort Worth Center
09:56PM 33.3311 -95.4803 71° East 475 547 32,700 1,380 Climbing Fort Worth Center
09:57PM 33.3736 -95.3336 71° East 470 541 33,900 1,260 Climbing Fort Worth Center
09:58PM 33.4236 -95.1572 71° East 469 540 35,400 1,080 Climbing Fort Worth Center
09:59PM 33.4894 -95.0278 59° Northeast 467 537 36,100 720 Climbing Fort Worth Center
10:00PM 33.5764 -94.9150 47° Northeast 464 534 36,900 420 Climbing Fort Worth Center
10:01PM 33.6575 -94.7939 51° Northeast 464 534 37,000  Climbing Fort Worth Center
10:02PM 33.7386 -94.6744 51° Northeast 463 533 37,000  Level Fort Worth Center
10:03PM 33.8217 -94.5539 50° Northeast 463 533 37,000  Level Fort Worth Center
10:04PM 33.9008 -94.4331 52° Northeast 462 532 37,000  Level Fort Worth Center
10:05PM 33.9817 -94.3117 51° Northeast 462 532 37,000  Level Fort Worth Center
10:06PM 34.0611 -94.1889 52° Northeast 462 532 37,000  Level Fort Worth Center
10:07PM 34.1397 -94.0725 51° Northeast 456 525 37,000  Level Fort Worth Center
10:08PM 34.2186 -93.9506 52° Northeast 456 525 37,000  Level Fort Worth Center
10:09PM 34.2814 -93.8486 53° Northeast 460 529 37,000  Level Memphis Center
10:10PM 34.3628 -93.7247 51° Northeast 459 528 37,000  Level Memphis Center
10:11PM 34.4419 -93.6036 52° Northeast 459 528 37,000  Level Memphis Center
10:12PM 34.5211 -93.4817 52° Northeast 459 528 37,000  Level Memphis Center
10:13PM 34.6158 -93.3333 52° Northeast 461 531 37,000  Level Memphis Center
10:14PM 34.6936 -93.2119 52° Northeast 461 531 37,000  Level Memphis Center
10:15PM 34.7719 -93.0886 52° Northeast 461 531 37,000  Level Memphis Center
10:16PM 34.8500 -92.9667 52° Northeast 461 531 37,000  Level Memphis Center
10:17PM 34.9275 -92.8444 52° Northeast 461 531 37,000  Level Memphis Center
10:18PM 35.0039 -92.7222 53° Northeast 461 531 37,000  Level Memphis Center
10:19PM 35.0806 -92.5989 53° Northeast 461 531 37,000  Level Memphis Center
10:20PM 35.1589 -92.4753 52° Northeast 461 531 37,000  Level Memphis Center
10:21PM 35.2361 -92.3525 52° Northeast 461 531 37,000  Level Memphis Center
10:22PM 35.3278 -92.2058 53° Northeast 459 528 37,000  Level Memphis Center
10:23PM 35.4042 -92.0844 52° Northeast 457 526 37,000  Level Memphis Center
10:24PM 35.4811 -91.9622 52° Northeast 456 525 37,000  Level Memphis Center
10:25PM 35.5575 -91.8386 53° Northeast 456 525 37,000  Level Memphis Center
10:26PM 35.6325 -91.7172 53° Northeast 452 520 37,000  Level Memphis Center
10:27PM 35.7061 -91.5961 53° Northeast 447 514 37,000  Level Memphis Center
10:28PM 35.7808 -91.4728 53° Northeast 447 514 37,000  Level Memphis Center
10:29PM 35.8639 -91.3381 53° Northeast 448 516 37,000  Level Memphis Center
10:30PM 35.9386 -91.2142 53° Northeast 448 516 37,000  Level Memphis Center
10:31PM 36.0144 -91.0911 53° Northeast 448 516 37,000  Level Memphis Center
10:32PM 36.0886 -90.9664 54° Northeast 448 516 37,000  Level Memphis Center
10:33PM 36.1625 -90.8406 54° Northeast 449 517 37,000  Level Memphis Center
10:34PM 36.2386 -90.7172 53° Northeast 449 517 37,000  Level Memphis Center
10:35PM 36.3133 -90.5917 54° Northeast 449 517 37,000  Level Memphis Center
10:36PM 36.3867 -90.4658 54° Northeast 449 517 37,000  Level Memphis Center
10:37PM 36.4622 -90.3381 54° Northeast 451 519 37,000  Level Memphis Center
10:38PM 36.5372 -90.2114 54° Northeast 451 519 37,000 -240 Level Memphis Center
10:40PM 36.6122 -90.0836 54° Northeast 452 520 36,600 -660 Descending Memphis Center
10:41PM 36.6883 -89.9553 53° Northeast 454 522 35,700 -960 Descending Memphis Center
10:42PM 36.7639 -89.8250 54° Northeast 455 524 34,700 -1,020 Descending Memphis Center
10:43PM 36.8389 -89.6944 54° Northeast 456 525 33,700 -1,020 Descending Memphis Center
10:44PM 36.9150 -89.5639 54° Northeast 459 528 32,700 -1,140 Descending Memphis Center
10:45PM 37.0053 -89.4061 54° Northeast 459 528 31,500 -1,140 Descending Memphis Center
10:46PM 37.0814 -89.2744 54° Northeast 460 529 30,400 -1,080 Descending Memphis Center
10:47PM 37.1600 -89.1378 54° Northeast 474 545 29,400 -720 Descending Memphis Center
10:48PM 37.2400 -88.9953 55° Northeast 490 564 29,000 -240 Descending Memphis Center
10:49PM 37.3203 -88.8544 54° Northeast 492 566 29,000  Level Memphis Center
10:50PM 37.3997 -88.7131 55° Northeast 492 566 29,000  Level Memphis Center
10:51PM 37.4800 -88.5714 54° Northeast 494 568 29,000  Level Memphis Center
10:52PM 37.5592 -88.4294 55° Northeast 494 568 29,000  Level Memphis Center
10:53PM 37.6378 -88.2875 55° Northeast 494 568 29,000 -120 Level Memphis Center
10:54PM 37.7164 -88.1450 55° Northeast 494 568 28,800 -600 Descending Memphis Center
10:55PM 37.7636 -87.9914 69° East 497 572 27,900 -1,200 Descending Indianapolis Center
10:56PM 37.8125 -87.8328 69° East 498 573 26,600 -1,380 Descending Indianapolis Center
10:57PM 37.8650 -87.6733 67° East 496 571 25,100 -1,800 Descending Indianapolis Center
10:58PM 37.9139 -87.5164 68° East 488 562 23,000 -2,220 Descending Indianapolis Center
10:59PM 37.9619 -87.3642 68° East 474 545 20,600 -2,160 Descending Indianapolis Center
11:00PM 38.0100 -87.2164 68° East 462 532 18,600 -1,980 Descending Indianapolis Center
11:01PM 38.0539 -87.0733 69° East 446 513 16,600 -1,920 Descending Indianapolis Center
11:02PM 38.0983 -86.9342 68° East 437 503 14,800 -1,920 Descending Indianapolis Center
11:03PM 38.1489 -86.7708 68° East 427 491 12,800 -1,680 Descending Indianapolis Center
11:04PM 38.1914 -86.6369 68° East 418 481 11,500 -1,140 Descending Indianapolis Center
11:05PM 38.2267 -86.5011 72° East 414 476 10,500 -840 Descending Indianapolis Center
11:06PM 38.2106 -86.3717 99° East 385 443 9,900 -960 Descending Indianapolis Center
11:07PM 38.1947 -86.2589 100° East 350 403 8,600 -1,260 Descending Indianapolis Center
11:08PM 38.1806 -86.1506 99° East 317 365 7,400 -1,320 Descending Indianapolis Center
11:09PM 38.1864 -86.0453 86° East 306 352 6,000 -1,200 Descending Indianapolis Center
11:10PM 38.2053 -85.9528 75° East 287 330 5,000 -600 Descending Indianapolis Center
11:11PM 38.2447 -85.8919 50° Northeast 261 300 4,900 -480 Descending Indianapolis Center
11:12PM 38.3056 -85.9175 342° North 245 282 4,100 -840 Descending Indianapolis Center
11:13PM 38.3650 -85.9447 340° North 232 267 3,300 -540 Descending Indianapolis Center
11:14PM 38.4047 -85.8931 46° Northeast 239 275 3,000 -180 Descending Indianapolis Center
11:15PM 38.3611 -85.8278 130° Southeast 214 246 3,000  Level Indianapolis Center
11:16PM 38.3156 -85.7919 148° Southeast 203 234 3,000 -420 Level Indianapolis Center
11:17PM 38.2678 -85.7758 165° South 190 219 2,200 -600 Descending Indianapolis Center
11:18PM 38.2247 -85.7619 166° South 183 211 1,800 -420 Descending Indianapolis Center